sensor_id;sensor_type;location;lat;lon;timestamp;temperature;humidity
17687;DHT22;8962;52.538;13.266;2023-04-01T00:00:33;10.00;99.90
17687;DHT22;8962;52.538;13.266;2023-04-01T00:03:00;10.00;99.90
17687;DHT22;8962;52.538;13.266;2023-04-01T00:05:27;10.00;99.90
17687;DHT22;8962;52.538;13.266;2023-04-01T00:07:54;10.00;99.90
17687;DHT22;8962;52.538;13.266;2023-04-01T00:10:21;9.90;99.90
17687;DHT22;8962;52.538;13.266;2023-04-01T00:12:50;9.90;99.90
17687;DHT22;8962;52.538;13.266;2023-04-01T00:15:17;10.00;99.90
17687;DHT22;8962;52.538;13.266;2023-04-01T00:17:44;10.00;99.90
17687;DHT22;8962;52.538;13.266;2023-04-01T00:20:12;10.00;99.90
17687;DHT22;8962;52.538;13.266;2023-04-01T00:22:40;10.10;99.90
17687;DHT22;8962;52.538;13.266;2023-04-01T00:25:08;10.00;99.90
17687;DHT22;8962;52.538;13.266;2023-04-01T00:27:35;10.00;99.90
17687;DHT22;8962;52.538;13.266;2023-04-01T00:30:04;10.00;99.90
17687;DHT22;8962;52.538;13.266;2023-04-01T00:32:31;10.00;99.90
17687;DHT22;8962;52.538;13.266;2023-04-01T00:34:59;10.00;99.90
17687;DHT22;8962;52.538;13.266;2023-04-01T00:37:26;10.00;99.90
17687;DHT22;8962;52.538;13.266;2023-04-01T00:39:54;10.00;99.90
17687;DHT22;8962;52.538;13.266;2023-04-01T00:42:21;10.10;99.90
17687;DHT22;8962;52.538;13.266;2023-04-01T00:44:51;10.10;99.90
17687;DHT22;8962;52.538;13.266;2023-04-01T00:47:21;10.10;99.90
17687;DHT22;8962;52.538;13.266;2023-04-01T00:49:51;10.10;99.90
17687;DHT22;8962;52.538;13.266;2023-04-01T00:52:21;10.10;99.90
17687;DHT22;8962;52.538;13.266;2023-04-01T00:54:52;10.00;99.90
17687;DHT22;8962;52.538;13.266;2023-04-01T00:57:25;9.90;99.90
17687;DHT22;8962;52.538;13.266;2023-04-01T00:59:54;9.90;99.90
17687;DHT22;8962;52.538;13.266;2023-04-01T01:02:22;10.00;99.90
17687;DHT22;8962;52.538;13.266;2023-04-01T01:04:50;10.00;99.90
17687;DHT22;8962;52.538;13.266;2023-04-01T01:07:24;10.00;99.90
17687;DHT22;8962;52.538;13.266;2023-04-01T01:09:57;9.90;99.90
17687;DHT22;8962;52.538;13.266;2023-04-01T01:12:33;10.00;99.90
17687;DHT22;8962;52.538;13.266;2023-04-01T01:15:08;10.00;99.90
17687;DHT22;8962;52.538;13.266;2023-04-01T01:17:47;10.00;99.90
17687;DHT22;8962;52.538;13.266;2023-04-01T01:20:46;10.00;99.90
17687;DHT22;8962;52.538;13.266;2023-04-01T01:26:40;10.00;99.90
17687;DHT22;8962;52.538;13.266;2023-04-01T01:29:24;9.90;99.90
17687;DHT22;8962;52.538;13.266;2023-04-01T01:31:57;9.90;99.90
17687;DHT22;8962;52.538;13.266;2023-04-01T01:34:31;9.90;99.90
17687;DHT22;8962;52.538;13.266;2023-04-01T01:37:08;10.00;99.90
17687;DHT22;8962;52.538;13.266;2023-04-01T01:39:37;10.00;99.90
17687;DHT22;8962;52.538;13.266;2023-04-01T01:42:09;10.00;99.90
17687;DHT22;8962;52.538;13.266;2023-04-01T01:44:39;10.00;99.90
17687;DHT22;8962;52.538;13.266;2023-04-01T01:47:08;10.00;99.90
17687;DHT22;8962;52.538;13.266;2023-04-01T01:49:36;10.00;99.90
17687;DHT22;8962;52.538;13.266;2023-04-01T01:52:05;10.00;99.90
17687;DHT22;8962;52.538;13.266;2023-04-01T01:54:32;10.10;99.90
17687;DHT22;8962;52.538;13.266;2023-04-01T01:57:04;10.00;99.90
17687;DHT22;8962;52.538;13.266;2023-04-01T01:59:35;10.00;99.90
17687;DHT22;8962;52.538;13.266;2023-04-01T02:02:06;10.00;99.90
17687;DHT22;8962;52.538;13.266;2023-04-01T02:04:35;10.10;99.90
17687;DHT22;8962;52.538;13.266;2023-04-01T02:07:08;10.10;99.90
17687;DHT22;8962;52.538;13.266;2023-04-01T02:09:38;10.20;99.90
17687;DHT22;8962;52.538;13.266;2023-04-01T02:12:08;10.10;99.90
17687;DHT22;8962;52.538;13.266;2023-04-01T02:14:43;10.20;99.90
17687;DHT22;8962;52.538;13.266;2023-04-01T02:17:14;10.20;99.90
17687;DHT22;8962;52.538;13.266;2023-04-01T02:19:47;10.10;99.90
17687;DHT22;8962;52.538;13.266;2023-04-01T02:22:20;10.10;99.90
17687;DHT22;8962;52.538;13.266;2023-04-01T02:24:49;10.10;99.90
17687;DHT22;8962;52.538;13.266;2023-04-01T02:27:17;10.10;99.90
17687;DHT22;8962;52.538;13.266;2023-04-01T02:29:47;10.10;99.90
17687;DHT22;8962;52.538;13.266;2023-04-01T02:32:14;10.10;99.90
17687;DHT22;8962;52.538;13.266;2023-04-01T02:34:43;10.10;99.90
17687;DHT22;8962;52.538;13.266;2023-04-01T02:37:11;10.10;99.90
17687;DHT22;8962;52.538;13.266;2023-04-01T02:39:40;10.10;99.90
17687;DHT22;8962;52.538;13.266;2023-04-01T02:42:08;10.00;99.90
17687;DHT22;8962;52.538;13.266;2023-04-01T02:44:36;10.10;99.90
17687;DHT22;8962;52.538;13.266;2023-04-01T02:47:03;10.10;99.90
17687;DHT22;8962;52.538;13.266;2023-04-01T02:49:30;10.00;99.90
17687;DHT22;8962;52.538;13.266;2023-04-01T02:51:57;10.00;99.90
17687;DHT22;8962;52.538;13.266;2023-04-01T02:54:24;9.90;99.90
17687;DHT22;8962;52.538;13.266;2023-04-01T02:56:52;9.90;99.90
17687;DHT22;8962;52.538;13.266;2023-04-01T02:59:19;10.00;99.90
17687;DHT22;8962;52.538;13.266;2023-04-01T03:01:46;10.00;99.90
17687;DHT22;8962;52.538;13.266;2023-04-01T03:04:13;10.00;99.90
17687;DHT22;8962;52.538;13.266;2023-04-01T03:06:41;10.00;99.90
17687;DHT22;8962;52.538;13.266;2023-04-01T03:09:08;9.90;99.90
17687;DHT22;8962;52.538;13.266;2023-04-01T03:11:35;9.90;99.90
17687;DHT22;8962;52.538;13.266;2023-04-01T03:14:04;10.00;99.90
17687;DHT22;8962;52.538;13.266;2023-04-01T03:16:31;9.90;99.90
17687;DHT22;8962;52.538;13.266;2023-04-01T03:18:58;9.90;99.90
17687;DHT22;8962;52.538;13.266;2023-04-01T03:21:28;9.90;99.90
17687;DHT22;8962;52.538;13.266;2023-04-01T03:23:55;10.00;99.90
17687;DHT22;8962;52.538;13.266;2023-04-01T03:26:22;9.90;99.90
17687;DHT22;8962;52.538;13.266;2023-04-01T03:28:49;10.00;99.90
17687;DHT22;8962;52.538;13.266;2023-04-01T03:31:18;10.00;99.90
17687;DHT22;8962;52.538;13.266;2023-04-01T03:33:51;10.00;99.90
17687;DHT22;8962;52.538;13.266;2023-04-01T03:36:18;10.00;99.90
17687;DHT22;8962;52.538;13.266;2023-04-01T03:38:46;10.00;99.90
17687;DHT22;8962;52.538;13.266;2023-04-01T03:41:18;10.00;99.90
17687;DHT22;8962;52.538;13.266;2023-04-01T03:43:46;10.00;99.90
17687;DHT22;8962;52.538;13.266;2023-04-01T03:46:18;10.00;99.90
17687;DHT22;8962;52.538;13.266;2023-04-01T03:48:46;10.00;99.90
17687;DHT22;8962;52.538;13.266;2023-04-01T03:51:13;10.10;99.90
17687;DHT22;8962;52.538;13.266;2023-04-01T03:53:40;10.10;99.90
17687;DHT22;8962;52.538;13.266;2023-04-01T03:56:08;10.10;99.90
17687;DHT22;8962;52.538;13.266;2023-04-01T03:58:36;10.10;99.90
17687;DHT22;8962;52.538;13.266;2023-04-01T04:01:14;10.10;99.90
17687;DHT22;8962;52.538;13.266;2023-04-01T04:03:43;10.20;99.90
17687;DHT22;8962;52.538;13.266;2023-04-01T04:06:12;10.10;99.90
17687;DHT22;8962;52.538;13.266;2023-04-01T04:08:40;10.10;99.90
17687;DHT22;8962;52.538;13.266;2023-04-01T04:11:07;10.20;99.90
17687;DHT22;8962;52.538;13.266;2023-04-01T04:13:37;10.10;99.90
17687;DHT22;8962;52.538;13.266;2023-04-01T04:16:05;10.10;99.90
17687;DHT22;8962;52.538;13.266;2023-04-01T04:18:34;10.10;99.90
17687;DHT22;8962;52.538;13.266;2023-04-01T04:21:02;10.20;99.90
17687;DHT22;8962;52.538;13.266;2023-04-01T04:23:30;10.10;99.90
17687;DHT22;8962;52.538;13.266;2023-04-01T04:26:01;10.10;99.90
17687;DHT22;8962;52.538;13.266;2023-04-01T04:28:29;10.10;99.90
17687;DHT22;8962;52.538;13.266;2023-04-01T04:30:58;10.10;99.90
17687;DHT22;8962;52.538;13.266;2023-04-01T04:33:26;10.10;99.90
17687;DHT22;8962;52.538;13.266;2023-04-01T04:35:55;10.10;99.90
17687;DHT22;8962;52.538;13.266;2023-04-01T04:38:25;10.10;99.90
17687;DHT22;8962;52.538;13.266;2023-04-01T04:40:53;10.10;99.90
17687;DHT22;8962;52.538;13.266;2023-04-01T04:43:21;10.10;99.90
17687;DHT22;8962;52.538;13.266;2023-04-01T04:45:48;10.10;99.90
17687;DHT22;8962;52.538;13.266;2023-04-01T04:48:17;10.10;99.90
17687;DHT22;8962;52.538;13.266;2023-04-01T04:50:46;10.20;99.90
17687;DHT22;8962;52.538;13.266;2023-04-01T04:53:14;10.10;99.90
17687;DHT22;8962;52.538;13.266;2023-04-01T04:55:47;10.10;99.90
17687;DHT22;8962;52.538;13.266;2023-04-01T04:58:23;10.10;99.90
17687;DHT22;8962;52.538;13.266;2023-04-01T05:00:50;10.00;99.90
17687;DHT22;8962;52.538;13.266;2023-04-01T05:03:25;10.00;99.90
17687;DHT22;8962;52.538;13.266;2023-04-01T05:05:53;10.00;99.90
17687;DHT22;8962;52.538;13.266;2023-04-01T05:08:20;10.10;99.90
17687;DHT22;8962;52.538;13.266;2023-04-01T05:10:48;10.00;99.90
17687;DHT22;8962;52.538;13.266;2023-04-01T05:13:16;10.00;99.90
17687;DHT22;8962;52.538;13.266;2023-04-01T05:15:46;10.00;99.90
17687;DHT22;8962;52.538;13.266;2023-04-01T05:18:13;10.00;99.90
17687;DHT22;8962;52.538;13.266;2023-04-01T05:20:46;10.10;99.90
17687;DHT22;8962;52.538;13.266;2023-04-01T05:23:14;10.10;99.90
17687;DHT22;8962;52.538;13.266;2023-04-01T05:25:41;10.10;99.90
17687;DHT22;8962;52.538;13.266;2023-04-01T05:28:09;10.20;99.90
17687;DHT22;8962;52.538;13.266;2023-04-01T05:30:39;10.20;99.90
17687;DHT22;8962;52.538;13.266;2023-04-01T05:33:20;10.20;99.90
17687;DHT22;8962;52.538;13.266;2023-04-01T05:35:47;10.30;99.90
17687;DHT22;8962;52.538;13.266;2023-04-01T05:38:14;10.20;99.90
17687;DHT22;8962;52.538;13.266;2023-04-01T05:40:41;10.30;99.90
17687;DHT22;8962;52.538;13.266;2023-04-01T05:43:10;10.30;99.90
17687;DHT22;8962;52.538;13.266;2023-04-01T05:45:38;10.40;99.90
17687;DHT22;8962;52.538;13.266;2023-04-01T05:48:11;10.50;99.90
17687;DHT22;8962;52.538;13.266;2023-04-01T05:50:40;10.50;99.90
17687;DHT22;8962;52.538;13.266;2023-04-01T05:53:09;10.50;99.90
17687;DHT22;8962;52.538;13.266;2023-04-01T05:55:37;10.60;99.90
17687;DHT22;8962;52.538;13.266;2023-04-01T05:58:05;10.70;99.90
17687;DHT22;8962;52.538;13.266;2023-04-01T06:00:37;10.60;99.90
17687;DHT22;8962;52.538;13.266;2023-04-01T06:03:05;10.60;99.90
17687;DHT22;8962;52.538;13.266;2023-04-01T06:05:39;10.60;99.90
17687;DHT22;8962;52.538;13.266;2023-04-01T06:08:11;10.60;99.90
17687;DHT22;8962;52.538;13.266;2023-04-01T06:10:48;10.60;99.90
17687;DHT22;8962;52.538;13.266;2023-04-01T06:13:26;10.60;99.90
17687;DHT22;8962;52.538;13.266;2023-04-01T06:16:07;10.60;99.90
17687;DHT22;8962;52.538;13.266;2023-04-01T06:18:51;10.60;99.90
17687;DHT22;8962;52.538;13.266;2023-04-01T06:21:56;10.60;99.90
17687;DHT22;8962;52.538;13.266;2023-04-01T06:24:44;10.60;99.90
17687;DHT22;8962;52.538;13.266;2023-04-01T06:27:24;10.70;99.90
17687;DHT22;8962;52.538;13.266;2023-04-01T06:30:05;10.70;99.90
17687;DHT22;8962;52.538;13.266;2023-04-01T06:33:00;10.60;99.90
17687;DHT22;8962;52.538;13.266;2023-04-01T06:35:51;10.50;99.90
17687;DHT22;8962;52.538;13.266;2023-04-01T06:38:34;10.50;99.90
17687;DHT22;8962;52.538;13.266;2023-04-01T06:41:27;10.50;99.90
17687;DHT22;8962;52.538;13.266;2023-04-01T06:44:11;10.30;99.90
17687;DHT22;8962;52.538;13.266;2023-04-01T06:47:09;10.40;99.90
17687;DHT22;8962;52.538;13.266;2023-04-01T06:50:03;10.50;99.90
17687;DHT22;8962;52.538;13.266;2023-04-01T06:53:00;10.50;99.90
17687;DHT22;8962;52.538;13.266;2023-04-01T06:55:51;10.50;99.90
17687;DHT22;8962;52.538;13.266;2023-04-01T06:58:37;10.60;99.90
17687;DHT22;8962;52.538;13.266;2023-04-01T07:01:08;10.70;99.90
17687;DHT22;8962;52.538;13.266;2023-04-01T07:03:41;10.60;99.90
17687;DHT22;8962;52.538;13.266;2023-04-01T07:06:16;10.60;99.90
17687;DHT22;8962;52.538;13.266;2023-04-01T07:08:53;10.50;99.90
17687;DHT22;8962;52.538;13.266;2023-04-01T07:11:26;10.50;99.90
17687;DHT22;8962;52.538;13.266;2023-04-01T07:14:36;10.50;99.90
17687;DHT22;8962;52.538;13.266;2023-04-01T07:17:07;10.60;99.90
17687;DHT22;8962;52.538;13.266;2023-04-01T07:19:41;10.70;99.90
17687;DHT22;8962;52.538;13.266;2023-04-01T07:22:21;10.80;99.90
17687;DHT22;8962;52.538;13.266;2023-04-01T07:25:07;10.80;99.90
17687;DHT22;8962;52.538;13.266;2023-04-01T07:27:38;10.80;99.90
17687;DHT22;8962;52.538;13.266;2023-04-01T07:30:13;10.80;99.90
17687;DHT22;8962;52.538;13.266;2023-04-01T07:32:44;10.80;99.90
17687;DHT22;8962;52.538;13.266;2023-04-01T07:35:19;10.80;99.90
17687;DHT22;8962;52.538;13.266;2023-04-01T07:38:03;10.90;99.90
17687;DHT22;8962;52.538;13.266;2023-04-01T07:40:37;10.90;99.90
17687;DHT22;8962;52.538;13.266;2023-04-01T07:43:30;10.90;99.90
17687;DHT22;8962;52.538;13.266;2023-04-01T07:46:39;10.90;99.90
17687;DHT22;8962;52.538;13.266;2023-04-01T07:49:16;11.00;99.90
17687;DHT22;8962;52.538;13.266;2023-04-01T07:51:50;11.10;99.90
17687;DHT22;8962;52.538;13.266;2023-04-01T07:54:24;11.00;99.90
17687;DHT22;8962;52.538;13.266;2023-04-01T07:56:57;11.00;99.90
17687;DHT22;8962;52.538;13.266;2023-04-01T07:59:49;11.00;99.90
17687;DHT22;8962;52.538;13.266;2023-04-01T08:02:31;11.10;99.90
17687;DHT22;8962;52.538;13.266;2023-04-01T08:05:10;11.10;99.90
17687;DHT22;8962;52.538;13.266;2023-04-01T08:07:44;11.30;99.90
17687;DHT22;8962;52.538;13.266;2023-04-01T08:10:36;11.20;99.90
17687;DHT22;8962;52.538;13.266;2023-04-01T08:13:33;11.30;99.90
17687;DHT22;8962;52.538;13.266;2023-04-01T08:16:37;11.40;99.90
17687;DHT22;8962;52.538;13.266;2023-04-01T08:19:21;11.40;99.90
17687;DHT22;8962;52.538;13.266;2023-04-01T08:21:58;11.30;99.90
17687;DHT22;8962;52.538;13.266;2023-04-01T08:24:31;11.20;99.90
17687;DHT22;8962;52.538;13.266;2023-04-01T08:27:05;11.30;99.90
17687;DHT22;8962;52.538;13.266;2023-04-01T08:29:39;11.10;99.90
17687;DHT22;8962;52.538;13.266;2023-04-01T08:32:11;11.10;99.90
17687;DHT22;8962;52.538;13.266;2023-04-01T08:34:43;11.10;99.90
17687;DHT22;8962;52.538;13.266;2023-04-01T08:37:23;11.10;99.90
17687;DHT22;8962;52.538;13.266;2023-04-01T08:39:56;11.00;99.90
17687;DHT22;8962;52.538;13.266;2023-04-01T08:42:36;10.80;99.90
17687;DHT22;8962;52.538;13.266;2023-04-01T08:45:34;10.60;99.90
17687;DHT22;8962;52.538;13.266;2023-04-01T08:51:18;10.30;99.90
17687;DHT22;8962;52.538;13.266;2023-04-01T08:54:00;10.30;99.90
17687;DHT22;8962;52.538;13.266;2023-04-01T08:56:34;10.20;99.90
17687;DHT22;8962;52.538;13.266;2023-04-01T08:59:31;10.30;99.90
17687;DHT22;8962;52.538;13.266;2023-04-01T09:02:31;10.30;99.90
17687;DHT22;8962;52.538;13.266;2023-04-01T09:05:34;10.40;99.90
17687;DHT22;8962;52.538;13.266;2023-04-01T09:08:15;10.60;99.90
17687;DHT22;8962;52.538;13.266;2023-04-01T09:10:59;10.70;99.90
17687;DHT22;8962;52.538;13.266;2023-04-01T09:14:23;10.70;99.90
17687;DHT22;8962;52.538;13.266;2023-04-01T09:17:36;10.70;99.90
17687;DHT22;8962;52.538;13.266;2023-04-01T09:20:18;10.70;99.90
17687;DHT22;8962;52.538;13.266;2023-04-01T09:23:09;10.70;99.90
17687;DHT22;8962;52.538;13.266;2023-04-01T09:25:53;10.70;99.90
17687;DHT22;8962;52.538;13.266;2023-04-01T09:28:28;10.60;99.90
17687;DHT22;8962;52.538;13.266;2023-04-01T09:31:23;10.70;99.90
17687;DHT22;8962;52.538;13.266;2023-04-01T09:34:30;10.60;99.90
17687;DHT22;8962;52.538;13.266;2023-04-01T09:37:17;10.60;99.90
17687;DHT22;8962;52.538;13.266;2023-04-01T09:39:55;10.70;99.90
17687;DHT22;8962;52.538;13.266;2023-04-01T09:42:41;10.60;99.90
17687;DHT22;8962;52.538;13.266;2023-04-01T09:45:35;10.60;99.90
17687;DHT22;8962;52.538;13.266;2023-04-01T09:48:19;10.80;99.90
17687;DHT22;8962;52.538;13.266;2023-04-01T09:50:57;10.60;99.90
17687;DHT22;8962;52.538;13.266;2023-04-01T09:53:36;10.60;99.90
17687;DHT22;8962;52.538;13.266;2023-04-01T09:56:37;10.50;99.90
17687;DHT22;8962;52.538;13.266;2023-04-01T09:59:41;10.60;99.90
17687;DHT22;8962;52.538;13.266;2023-04-01T10:05:54;10.80;99.90
17687;DHT22;8962;52.538;13.266;2023-04-01T10:08:41;10.80;99.90
17687;DHT22;8962;52.538;13.266;2023-04-01T10:11:59;10.90;99.90
17687;DHT22;8962;52.538;13.266;2023-04-01T10:17:53;10.90;99.90
17687;DHT22;8962;52.538;13.266;2023-04-01T10:20:40;10.80;99.90
17687;DHT22;8962;52.538;13.266;2023-04-01T10:26:23;10.70;99.90
17687;DHT22;8962;52.538;13.266;2023-04-01T10:29:27;10.80;99.90
17687;DHT22;8962;52.538;13.266;2023-04-01T10:32:22;10.70;99.90
17687;DHT22;8962;52.538;13.266;2023-04-01T10:41:35;10.40;99.90
17687;DHT22;8962;52.538;13.266;2023-04-01T10:45:02;10.40;99.90
17687;DHT22;8962;52.538;13.266;2023-04-01T10:48:09;10.40;99.90
17687;DHT22;8962;52.538;13.266;2023-04-01T10:50:56;10.40;99.90
17687;DHT22;8962;52.538;13.266;2023-04-01T10:53:38;10.40;99.90
17687;DHT22;8962;52.538;13.266;2023-04-01T10:56:53;10.30;99.90
17687;DHT22;8962;52.538;13.266;2023-04-01T11:00:18;10.30;99.90
17687;DHT22;8962;52.538;13.266;2023-04-01T11:03:46;10.00;99.90
17687;DHT22;8962;52.538;13.266;2023-04-01T11:13:32;9.80;99.90
17687;DHT22;8962;52.538;13.266;2023-04-01T11:16:36;9.90;99.90
17687;DHT22;8962;52.538;13.266;2023-04-01T11:22:18;10.30;99.90
17687;DHT22;8962;52.538;13.266;2023-04-01T11:25:20;10.30;99.90
17687;DHT22;8962;52.538;13.266;2023-04-01T11:28:27;10.10;99.90
17687;DHT22;8962;52.538;13.266;2023-04-01T11:31:19;9.90;99.90
17687;DHT22;8962;52.538;13.266;2023-04-01T11:33:54;9.90;99.90
17687;DHT22;8962;52.538;13.266;2023-04-01T11:36:33;10.00;99.90
17687;DHT22;8962;52.538;13.266;2023-04-01T11:39:15;10.10;99.90
17687;DHT22;8962;52.538;13.266;2023-04-01T11:42:14;10.10;99.90
17687;DHT22;8962;52.538;13.266;2023-04-01T11:45:17;10.30;99.90
17687;DHT22;8962;52.538;13.266;2023-04-01T11:51:20;10.20;99.90
17687;DHT22;8962;52.538;13.266;2023-04-01T11:53:57;10.10;99.90
17687;DHT22;8962;52.538;13.266;2023-04-01T11:56:45;10.10;99.90
17687;DHT22;8962;52.538;13.266;2023-04-01T11:59:41;10.00;99.90
17687;DHT22;8962;52.538;13.266;2023-04-01T12:02:16;10.00;99.90
17687;DHT22;8962;52.538;13.266;2023-04-01T12:05:23;9.90;99.90
17687;DHT22;8962;52.538;13.266;2023-04-01T12:08:08;10.00;99.90
17687;DHT22;8962;52.538;13.266;2023-04-01T12:10:40;9.90;99.90
17687;DHT22;8962;52.538;13.266;2023-04-01T12:13:20;9.80;99.90
17687;DHT22;8962;52.538;13.266;2023-04-01T12:16:05;9.90;99.90
17687;DHT22;8962;52.538;13.266;2023-04-01T12:18:38;9.80;99.90
17687;DHT22;8962;52.538;13.266;2023-04-01T12:21:17;9.90;99.90
17687;DHT22;8962;52.538;13.266;2023-04-01T12:24:10;10.00;99.90
17687;DHT22;8962;52.538;13.266;2023-04-01T12:26:52;9.80;99.90
17687;DHT22;8962;52.538;13.266;2023-04-01T12:29:42;9.90;99.90
17687;DHT22;8962;52.538;13.266;2023-04-01T12:32:21;9.90;99.90
17687;DHT22;8962;52.538;13.266;2023-04-01T12:35:02;9.80;99.90
17687;DHT22;8962;52.538;13.266;2023-04-01T12:37:38;9.60;99.90
17687;DHT22;8962;52.538;13.266;2023-04-01T12:40:20;9.70;99.90
17687;DHT22;8962;52.538;13.266;2023-04-01T12:43:12;9.60;99.90
17687;DHT22;8962;52.538;13.266;2023-04-01T12:45:49;9.30;99.90
17687;DHT22;8962;52.538;13.266;2023-04-01T12:48:37;9.30;99.90
17687;DHT22;8962;52.538;13.266;2023-04-01T12:51:33;9.30;99.90
17687;DHT22;8962;52.538;13.266;2023-04-01T12:57:23;9.30;99.90
17687;DHT22;8962;52.538;13.266;2023-04-01T13:00:08;9.20;99.90
17687;DHT22;8962;52.538;13.266;2023-04-01T13:02:56;9.20;99.90
17687;DHT22;8962;52.538;13.266;2023-04-01T13:05:40;9.20;99.90
17687;DHT22;8962;52.538;13.266;2023-04-01T13:08:26;9.10;99.90
17687;DHT22;8962;52.538;13.266;2023-04-01T13:11:07;9.20;99.90
17687;DHT22;8962;52.538;13.266;2023-04-01T13:13:57;9.30;99.90
17687;DHT22;8962;52.538;13.266;2023-04-01T13:16:31;9.10;99.90
17687;DHT22;8962;52.538;13.266;2023-04-01T13:19:06;9.00;99.90
17687;DHT22;8962;52.538;13.266;2023-04-01T13:21:44;9.10;99.90
17687;DHT22;8962;52.538;13.266;2023-04-01T13:24:28;8.90;99.90
17687;DHT22;8962;52.538;13.266;2023-04-01T13:27:00;8.80;99.90
17687;DHT22;8962;52.538;13.266;2023-04-01T13:29:32;8.90;99.90
17687;DHT22;8962;52.538;13.266;2023-04-01T13:32:13;9.00;99.90
17687;DHT22;8962;52.538;13.266;2023-04-01T13:34:53;8.90;99.90
17687;DHT22;8962;52.538;13.266;2023-04-01T13:37:31;9.00;99.90
17687;DHT22;8962;52.538;13.266;2023-04-01T13:40:21;9.10;99.90
17687;DHT22;8962;52.538;13.266;2023-04-01T13:42:55;8.90;99.90
17687;DHT22;8962;52.538;13.266;2023-04-01T13:45:29;8.80;99.90
17687;DHT22;8962;52.538;13.266;2023-04-01T13:48:27;8.90;99.90
17687;DHT22;8962;52.538;13.266;2023-04-01T13:51:29;8.90;99.90
17687;DHT22;8962;52.538;13.266;2023-04-01T13:57:20;9.20;99.90
17687;DHT22;8962;52.538;13.266;2023-04-01T14:00:03;9.10;99.90
17687;DHT22;8962;52.538;13.266;2023-04-01T14:02:51;9.00;99.90
17687;DHT22;8962;52.538;13.266;2023-04-01T14:05:44;9.00;99.90
17687;DHT22;8962;52.538;13.266;2023-04-01T14:08:23;8.80;99.90
17687;DHT22;8962;52.538;13.266;2023-04-01T14:11:03;8.70;99.90
17687;DHT22;8962;52.538;13.266;2023-04-01T14:13:38;8.70;99.90
17687;DHT22;8962;52.538;13.266;2023-04-01T14:16:28;8.70;99.90
17687;DHT22;8962;52.538;13.266;2023-04-01T14:19:11;8.50;99.90
17687;DHT22;8962;52.538;13.266;2023-04-01T14:21:47;8.60;99.90
17687;DHT22;8962;52.538;13.266;2023-04-01T14:24:27;8.60;99.90
17687;DHT22;8962;52.538;13.266;2023-04-01T14:30:20;8.70;99.90
17687;DHT22;8962;52.538;13.266;2023-04-01T14:32:58;8.70;99.90
17687;DHT22;8962;52.538;13.266;2023-04-01T14:35:37;8.70;99.90
17687;DHT22;8962;52.538;13.266;2023-04-01T14:38:27;8.70;99.90
17687;DHT22;8962;52.538;13.266;2023-04-01T14:40:58;8.60;99.90
17687;DHT22;8962;52.538;13.266;2023-04-01T14:49:30;8.60;99.90
17687;DHT22;8962;52.538;13.266;2023-04-01T14:52:08;8.50;99.90
17687;DHT22;8962;52.538;13.266;2023-04-01T14:54:37;8.30;99.90
17687;DHT22;8962;52.538;13.266;2023-04-01T14:57:11;8.30;99.90
17687;DHT22;8962;52.538;13.266;2023-04-01T14:59:40;8.10;99.90
17687;DHT22;8962;52.538;13.266;2023-04-01T15:02:29;8.00;99.90
17687;DHT22;8962;52.538;13.266;2023-04-01T15:05:06;8.10;99.90
17687;DHT22;8962;52.538;13.266;2023-04-01T15:11:06;8.00;99.90
17687;DHT22;8962;52.538;13.266;2023-04-01T15:16:41;7.90;99.90
17687;DHT22;8962;52.538;13.266;2023-04-01T15:19:18;7.90;99.90
17687;DHT22;8962;52.538;13.266;2023-04-01T15:22:05;8.00;99.90
17687;DHT22;8962;52.538;13.266;2023-04-01T15:24:47;7.80;99.90
17687;DHT22;8962;52.538;13.266;2023-04-01T15:27:28;7.80;99.90
17687;DHT22;8962;52.538;13.266;2023-04-01T15:30:27;7.80;99.90
17687;DHT22;8962;52.538;13.266;2023-04-01T15:33:18;7.80;99.90
17687;DHT22;8962;52.538;13.266;2023-04-01T15:35:57;7.90;99.90
17687;DHT22;8962;52.538;13.266;2023-04-01T15:38:33;7.90;99.90
17687;DHT22;8962;52.538;13.266;2023-04-01T15:41:13;7.90;99.90
17687;DHT22;8962;52.538;13.266;2023-04-01T15:43:42;8.00;99.90
17687;DHT22;8962;52.538;13.266;2023-04-01T15:46:39;8.10;99.90
17687;DHT22;8962;52.538;13.266;2023-04-01T15:49:15;8.00;99.90
17687;DHT22;8962;52.538;13.266;2023-04-01T15:51:53;8.10;99.90
17687;DHT22;8962;52.538;13.266;2023-04-01T15:54:38;7.90;99.90
17687;DHT22;8962;52.538;13.266;2023-04-01T15:57:27;7.90;99.90
17687;DHT22;8962;52.538;13.266;2023-04-01T16:00:10;8.00;99.90
17687;DHT22;8962;52.538;13.266;2023-04-01T16:02:44;8.00;99.90
17687;DHT22;8962;52.538;13.266;2023-04-01T16:05:25;8.00;99.90
17687;DHT22;8962;52.538;13.266;2023-04-01T16:08:02;7.90;99.90
17687;DHT22;8962;52.538;13.266;2023-04-01T16:10:52;7.90;99.90
17687;DHT22;8962;52.538;13.266;2023-04-01T16:13:44;8.00;99.90
17687;DHT22;8962;52.538;13.266;2023-04-01T16:16:41;7.40;99.90
17687;DHT22;8962;52.538;13.266;2023-04-01T16:19:28;7.50;99.90
17687;DHT22;8962;52.538;13.266;2023-04-01T16:22:00;7.40;99.90
17687;DHT22;8962;52.538;13.266;2023-04-01T16:24:33;7.40;99.90
17687;DHT22;8962;52.538;13.266;2023-04-01T16:27:05;7.30;99.90
17687;DHT22;8962;52.538;13.266;2023-04-01T16:29:43;7.40;99.90
17687;DHT22;8962;52.538;13.266;2023-04-01T16:32:22;7.30;99.90
17687;DHT22;8962;52.538;13.266;2023-04-01T16:35:12;7.10;99.90
17687;DHT22;8962;52.538;13.266;2023-04-01T16:37:46;7.20;99.90
17687;DHT22;8962;52.538;13.266;2023-04-01T16:40:24;7.00;99.90
17687;DHT22;8962;52.538;13.266;2023-04-01T16:42:53;7.10;99.90
17687;DHT22;8962;52.538;13.266;2023-04-01T16:45:33;7.20;99.90
17687;DHT22;8962;52.538;13.266;2023-04-01T16:48:09;7.00;99.90
17687;DHT22;8962;52.538;13.266;2023-04-01T16:50:48;7.00;99.90
17687;DHT22;8962;52.538;13.266;2023-04-01T16:53:21;6.60;99.90
17687;DHT22;8962;52.538;13.266;2023-04-01T16:55:55;6.90;99.90
17687;DHT22;8962;52.538;13.266;2023-04-01T16:58:27;6.80;99.90
17687;DHT22;8962;52.538;13.266;2023-04-01T17:01:05;6.80;99.90
17687;DHT22;8962;52.538;13.266;2023-04-01T17:03:38;6.70;99.90
17687;DHT22;8962;52.538;13.266;2023-04-01T17:06:16;6.60;99.90
17687;DHT22;8962;52.538;13.266;2023-04-01T17:08:55;6.60;99.90
17687;DHT22;8962;52.538;13.266;2023-04-01T17:11:26;6.60;99.90
17687;DHT22;8962;52.538;13.266;2023-04-01T17:14:01;6.60;99.90
17687;DHT22;8962;52.538;13.266;2023-04-01T17:16:56;6.60;99.90
17687;DHT22;8962;52.538;13.266;2023-04-01T17:19:43;6.60;99.90
17687;DHT22;8962;52.538;13.266;2023-04-01T17:22:22;6.50;99.90
17687;DHT22;8962;52.538;13.266;2023-04-01T17:25:02;6.50;99.90
17687;DHT22;8962;52.538;13.266;2023-04-01T17:27:41;6.50;99.90
17687;DHT22;8962;52.538;13.266;2023-04-01T17:30:22;6.60;99.90
17687;DHT22;8962;52.538;13.266;2023-04-01T17:33:10;6.40;99.90
17687;DHT22;8962;52.538;13.266;2023-04-01T17:35:50;6.30;99.90
17687;DHT22;8962;52.538;13.266;2023-04-01T17:38:28;6.30;99.90
17687;DHT22;8962;52.538;13.266;2023-04-01T17:41:01;6.20;99.90
17687;DHT22;8962;52.538;13.266;2023-04-01T17:43:38;6.20;99.90
17687;DHT22;8962;52.538;13.266;2023-04-01T17:46:27;6.10;99.90